createdAt,value
2023-01-05T00:00:27.168Z,100
2023-01-05T00:05:25.479Z,100
2023-01-05T00:10:23.960Z,100
2023-01-05T00:15:22.125Z,100
2023-01-05T00:20:20.403Z,100
2023-01-05T00:25:18.746Z,100
2023-01-05T00:30:16.999Z,100
2023-01-05T00:35:15.225Z,100
2023-01-05T00:40:13.770Z,100
2023-01-05T00:45:12.059Z,100
2023-01-05T00:50:10.610Z,100
2023-01-05T00:55:08.977Z,100
2023-01-05T01:00:07.295Z,100
2023-01-05T01:05:05.480Z,100
2023-01-05T01:10:04.064Z,100
2023-01-05T01:15:02.371Z,100
2023-01-05T01:20:00.789Z,100
2023-01-05T01:24:59.569Z,100
2023-01-05T01:29:57.707Z,100
2023-01-05T01:34:56.213Z,100
2023-01-05T01:39:54.454Z,100
2023-01-05T01:44:52.700Z,100
2023-01-05T01:49:50.762Z,100
2023-01-05T01:54:49.071Z,100
2023-01-05T01:59:47.271Z,100
2023-01-05T02:04:45.529Z,100
2023-01-05T02:09:44.001Z,100
2023-01-05T02:14:42.864Z,100
2023-01-05T02:19:41.190Z,100
2023-01-05T02:24:40.276Z,100
2023-01-05T02:29:38.505Z,100
2023-01-05T02:34:36.939Z,100
2023-01-05T02:39:35.289Z,100
2023-01-05T02:44:33.796Z,100
2023-01-05T02:49:32.159Z,100
2023-01-05T02:54:30.401Z,100
2023-01-05T02:59:28.752Z,100
2023-01-05T03:04:27.039Z,100
2023-01-05T03:09:25.202Z,100
2023-01-05T03:14:23.616Z,100
2023-01-05T03:19:23.044Z,100
2023-01-05T03:24:21.100Z,100
2023-01-05T03:29:19.302Z,100
2023-01-05T03:34:17.528Z,100
2023-01-05T03:39:15.766Z,100
2023-01-05T03:44:14.039Z,100
2023-01-05T03:49:12.276Z,100
2023-01-05T03:54:10.467Z,100
2023-01-05T03:59:08.768Z,100
2023-01-05T04:04:06.977Z,100
2023-01-05T04:09:05.118Z,100
2023-01-05T04:14:03.329Z,100
2023-01-05T04:19:01.567Z,100
2023-01-05T04:23:59.532Z,100
2023-01-05T04:28:57.814Z,100
2023-01-05T04:33:56.173Z,100
2023-01-05T04:38:54.292Z,100
2023-01-05T04:43:52.399Z,100
2023-01-05T04:48:50.687Z,100
2023-01-05T04:53:48.826Z,100
2023-01-05T04:58:46.937Z,100
2023-01-05T05:03:45.366Z,100
2023-01-05T05:08:43.783Z,100
2023-01-05T05:13:42.046Z,100
2023-01-05T05:18:40.414Z,100
2023-01-05T05:23:38.717Z,100
2023-01-05T05:28:37.008Z,100
2023-01-05T05:33:35.561Z,100
2023-01-05T05:38:34.158Z,100
2023-01-05T05:43:32.405Z,100
2023-01-05T05:48:30.913Z,100
2023-01-05T05:53:29.201Z,100
2023-01-05T05:58:27.576Z,100
2023-01-05T06:03:25.763Z,100
2023-01-05T06:08:24.235Z,100
2023-01-05T06:13:22.560Z,100
2023-01-05T06:18:20.925Z,100
2023-01-05T06:23:19.529Z,100
2023-01-05T06:28:20.303Z,100
2023-01-05T06:33:16.729Z,100
2023-01-05T06:38:15.229Z,100
2023-01-05T06:43:13.991Z,100
2023-01-05T06:48:12.765Z,100
2023-01-05T06:53:11.380Z,100
2023-01-05T06:58:10.122Z,100
2023-01-05T07:03:08.719Z,100
2023-01-05T07:08:08.153Z,100
2023-01-05T07:13:06.858Z,100
2023-01-05T07:18:06.133Z,100
2023-01-05T07:23:05.013Z,100
2023-01-05T07:27:57.240Z,100
2023-01-05T07:32:59.650Z,100
2023-01-05T07:38:03.233Z,60.8
2023-01-05T07:43:03.319Z,52.6
2023-01-05T07:48:02.715Z,46.9
2023-01-05T07:53:02.513Z,43.4
2023-01-05T07:58:01.131Z,40.1
2023-01-05T08:02:59.441Z,39.7
2023-01-05T08:07:58.598Z,38.4
2023-01-05T08:12:57.706Z,36.1
2023-01-05T08:17:57.184Z,34.9
2023-01-05T08:22:55.989Z,34.2
2023-01-05T08:27:54.070Z,33.6
2023-01-05T08:32:52.309Z,33.6
2023-01-05T08:37:50.762Z,32.1
2023-01-05T08:42:49.831Z,31.2
2023-01-05T08:47:46.725Z,30.9
2023-01-05T08:52:45.212Z,30.4
2023-01-05T08:57:44.321Z,29.3
2023-01-05T09:02:44.014Z,28.8
2023-01-05T09:07:42.684Z,28.5
2023-01-05T09:12:41.109Z,28.4
2023-01-05T09:17:39.723Z,27.5
2023-01-05T09:22:37.784Z,27.3
2023-01-05T09:27:37.045Z,26.6
2023-01-05T09:32:35.292Z,26.8
2023-01-05T09:37:33.819Z,26.7
2023-01-05T09:42:32.493Z,26.2
2023-01-05T09:47:30.069Z,26.5
2023-01-05T09:52:29.414Z,26.6
2023-01-05T09:57:26.932Z,25.6
2023-01-05T10:02:24.860Z,25.8
2023-01-05T10:07:22.117Z,26
2023-01-05T10:12:21.216Z,25.6
2023-01-05T10:17:43.842Z,25.9
2023-01-05T10:22:16.876Z,26.7
2023-01-05T10:27:24.463Z,28.1
2023-01-05T10:32:12.202Z,27.8
2023-01-05T10:37:10.609Z,28
2023-01-05T10:42:08.459Z,28
2023-01-05T10:47:07.035Z,28.1
2023-01-05T10:52:05.290Z,27.9
2023-01-05T10:57:03.360Z,27.9
2023-01-05T11:02:01.727Z,28.6
2023-01-05T11:06:59.847Z,28.9
2023-01-05T11:11:57.144Z,29.7
2023-01-05T11:16:54.274Z,31.3
2023-01-05T11:21:55.272Z,32.5
2023-01-05T11:26:49.215Z,34.7
2023-01-05T11:31:46.200Z,36.8
2023-01-05T11:36:43.522Z,38.2
2023-01-05T11:41:41.198Z,39.5
2023-01-05T11:46:39.738Z,39.3
2023-01-05T11:51:37.378Z,41.3
2023-01-05T11:56:34.897Z,42.4
2023-01-05T12:01:33.025Z,42.4
2023-01-05T12:06:31.402Z,41.4
2023-01-05T12:11:29.307Z,43.1
2023-01-05T12:16:28.160Z,42.6
2023-01-05T12:21:26.895Z,41.9
2023-01-05T12:26:25.496Z,41.8
2023-01-05T12:36:22.690Z,40.5
2023-01-05T12:41:21.368Z,39.3
2023-01-05T12:46:19.787Z,39.9
2023-01-05T12:51:17.624Z,39.1
2023-01-05T12:56:15.915Z,40.3
2023-01-05T13:01:13.420Z,42.7
2023-01-05T13:06:10.269Z,45.9
2023-01-05T13:11:07.328Z,48.4
2023-01-05T13:16:04.965Z,51.2
2023-01-05T13:21:02.714Z,53.8
2023-01-05T13:26:00.687Z,56.8
2023-01-05T13:30:58.655Z,59.4
2023-01-05T13:35:56.861Z,61.4
2023-01-05T13:40:54.881Z,61.9
2023-01-05T13:45:54.749Z,63.4
2023-01-05T13:50:52.867Z,64.3
2023-01-05T13:55:50.897Z,65.6
2023-01-05T14:00:49.249Z,65.6
2023-01-05T14:05:47.458Z,65.6
2023-01-05T14:10:45.783Z,66.6
2023-01-05T14:15:44.164Z,68
2023-01-05T14:20:42.529Z,67.1
2023-01-05T14:25:41.519Z,67.9
2023-01-05T14:30:39.713Z,69
2023-01-05T14:35:37.984Z,70.9
2023-01-05T14:40:36.562Z,71.2
2023-01-05T14:45:35.207Z,71.9
2023-01-05T14:50:33.255Z,72.9
2023-01-05T14:55:39.071Z,74.5
2023-01-05T15:00:29.767Z,76.4
2023-01-05T15:05:28.495Z,78.6
2023-01-05T15:10:26.880Z,80.3
2023-01-05T15:15:25.167Z,81.5
2023-01-05T15:20:23.827Z,81.7
2023-01-05T15:25:21.974Z,83.5
2023-01-05T15:30:21.628Z,87.3
2023-01-05T15:35:18.354Z,91
2023-01-05T15:40:16.350Z,98.3
2023-01-05T15:45:13.987Z,100
2023-01-05T15:50:11.962Z,100
2023-01-05T15:55:10.112Z,100
2023-01-05T16:00:08.336Z,100
2023-01-05T16:05:06.626Z,100
2023-01-05T16:10:05.597Z,100
2023-01-05T16:15:03.433Z,100
2023-01-05T16:20:01.995Z,100
2023-01-05T16:25:00.287Z,100
2023-01-05T16:29:58.623Z,100
2023-01-05T16:34:57.248Z,100
2023-01-05T16:39:55.802Z,100
2023-01-05T16:44:54.282Z,100
2023-01-05T16:49:57.897Z,100
2023-01-05T16:54:50.967Z,100
2023-01-05T16:59:48.958Z,100
2023-01-05T17:04:47.309Z,100
2023-01-05T17:09:45.437Z,100
2023-01-05T17:14:43.929Z,100
2023-01-05T17:19:42.043Z,100
2023-01-05T17:24:40.404Z,100
2023-01-05T17:29:38.528Z,100
2023-01-05T17:34:37.824Z,100
2023-01-05T17:39:34.838Z,100
2023-01-05T17:44:33.167Z,100
2023-01-05T17:49:31.474Z,100
2023-01-05T17:54:30.039Z,100
2023-01-05T17:59:28.309Z,100
2023-01-05T18:04:27.243Z,100
2023-01-05T18:09:25.292Z,100
2023-01-05T18:14:23.826Z,100
2023-01-05T18:19:22.314Z,100
2023-01-05T18:24:20.980Z,100
2023-01-05T18:29:19.213Z,100
2023-01-05T18:34:18.194Z,100
2023-01-05T18:39:16.595Z,100
2023-01-05T18:44:15.300Z,100
2023-01-05T18:49:14.133Z,100
2023-01-05T18:54:12.536Z,100
2023-01-05T18:59:12.776Z,100
2023-01-05T19:04:10.539Z,100
2023-01-05T19:09:07.123Z,100
2023-01-05T19:14:05.605Z,100
2023-01-05T19:19:03.636Z,100
2023-01-05T19:24:01.842Z,100
2023-01-05T19:29:00.311Z,100
2023-01-05T19:33:58.721Z,100
2023-01-05T19:38:56.703Z,100
2023-01-05T19:43:55.053Z,100
2023-01-05T19:48:52.944Z,100
2023-01-05T19:53:51.967Z,100
2023-01-05T19:58:50.079Z,100
2023-01-05T20:03:48.665Z,100
2023-01-05T20:08:46.903Z,100
2023-01-05T20:13:45.271Z,100
2023-01-05T20:18:43.014Z,100
2023-01-05T20:23:41.043Z,100
2023-01-05T20:28:39.303Z,100
2023-01-05T20:33:37.457Z,100
2023-01-05T20:38:35.651Z,100
2023-01-05T20:43:34.115Z,100
2023-01-05T20:48:32.812Z,100
2023-01-05T20:53:30.968Z,100
2023-01-05T20:58:30.353Z,100
2023-01-05T21:03:28.449Z,100
2023-01-05T21:08:26.704Z,100
2023-01-05T21:13:30.808Z,100
2023-01-05T21:18:23.474Z,100
2023-01-05T21:23:21.716Z,100
2023-01-05T21:28:19.934Z,100
2023-01-05T21:33:18.343Z,100
2023-01-05T21:38:16.579Z,100
2023-01-05T21:43:15.107Z,100
2023-01-05T21:48:13.342Z,100
2023-01-05T21:53:11.554Z,100
2023-01-05T21:58:09.804Z,100
2023-01-05T22:03:08.056Z,100
2023-01-05T22:08:06.478Z,100
2023-01-05T22:13:05.024Z,100
2023-01-05T22:18:03.395Z,100
2023-01-05T22:23:01.594Z,100
2023-01-05T22:27:59.882Z,100
2023-01-05T22:32:58.054Z,100
2023-01-05T22:37:56.133Z,100
2023-01-05T22:42:54.404Z,100
2023-01-05T22:47:52.679Z,100
2023-01-05T22:52:51.001Z,100
2023-01-05T22:57:49.118Z,100
2023-01-05T23:02:47.283Z,100
2023-01-05T23:07:45.613Z,100
2023-01-05T23:12:43.851Z,100
2023-01-05T23:17:42.144Z,100
2023-01-05T23:22:40.366Z,100
2023-01-05T23:27:38.540Z,100
2023-01-05T23:32:36.983Z,100
2023-01-05T23:37:35.063Z,100
2023-01-05T23:42:33.479Z,100
2023-01-05T23:47:31.696Z,100
2023-01-05T23:52:30.081Z,100
2023-01-05T23:57:28.843Z,100
